Time;durP1;ratioP1;P1;durP2;ratioP2;P2;SDS_P1;SDS_P2;PMS_P1;PMS_P2;Temp;Humidity;BMP_temperature;BMP_pressure;BME280_temperature;BME280_humidity;BME280_pressure;Samples;Min_cycle;Max_cycle;Signal;HPM_P1;HPM_P2
2023/04/16 00:03:00;;;;;;;2.70;1.52;;;19.20;71.10;;;;;;10520523;28;20076;-29
2023/04/16 00:08:02;;;;;;;6.35;1.83;;;19.00;73.90;;;;;;10526770;28;20091;-29
2023/04/16 00:13:06;;;;;;;2.08;1.27;;;20.00;65.70;;;;;;10523291;28;20097;-28
2023/04/16 00:18:08;;;;;;;5.35;1.40;;;19.60;67.40;;;;;;10515940;28;20140;-28
2023/04/16 00:23:09;;;;;;;4.78;1.38;;;18.60;72.10;;;;;;10507197;28;20040;-29
2023/04/16 00:28:13;;;;;;;4.78;1.60;;;19.60;69.20;;;;;;10528826;28;20052;-30
2023/04/16 00:33:15;;;;;;;3.33;1.73;;;19.20;70.30;;;;;;10517916;28;20389;-29
2023/04/16 00:38:18;;;;;;;4.90;1.50;;;19.10;70.60;;;;;;10512152;28;20048;-28
2023/04/16 00:43:24;;;;;;;;;;;18.80;70.50;;;;;;10509824;28;20104;-28
2023/04/16 00:48:27;;;;;;;6.50;1.80;;;18.60;72.30;;;;;;10518915;28;20322;-29
2023/04/16 00:53:30;;;;;;;7.28;1.67;;;17.80;72.60;;;;;;10507721;28;20139;-30
2023/04/16 00:58:34;;;;;;;5.78;2.53;;;19.10;71.20;;;;;;10518469;28;20048;-29
2023/04/16 01:03:39;;;;;;;4.85;1.27;;;19.00;71.80;;;;;;10514374;28;20058;-28
2023/04/16 01:08:43;;;;;;;4.22;1.10;;;17.80;69.00;;;;;;10525600;28;20051;-28
2023/04/16 01:13:46;;;;;;;5.55;1.40;;;17.80;60.40;;;;;;10504221;28;20079;-28
2023/04/16 01:18:48;;;;;;;2.83;1.27;;;18.60;72.90;;;;;;10518287;28;20079;-29
2023/04/16 01:23:51;;;;;;;5.15;1.23;;;19.20;71.20;;;;;;10521933;28;20142;-30
2023/04/16 01:28:53;;;;;;;1.60;0.80;;;18.80;69.30;;;;;;10516285;28;20528;-31
2023/04/16 01:33:55;;;;;;;2.55;1.00;;;18.60;71.60;;;;;;10526590;28;20528;-31
2023/04/16 01:38:59;;;;;;;3.22;1.30;;;18.90;67.50;;;;;;10531223;28;20044;-28
2023/04/16 01:44:00;;;;;;;5.20;1.00;;;19.40;68.40;;;;;;10535413;28;20454;-30
2023/04/16 01:49:02;;;;;;;4.35;1.08;;;18.70;72.80;;;;;;10529608;28;20056;-30
2023/04/16 01:54:06;;;;;;;8.35;1.67;;;16.60;81.10;;;;;;10524140;28;20075;-32
2023/04/16 01:59:07;;;;;;;3.22;1.40;;;18.40;72.50;;;;;;10517077;28;20514;-29
2023/04/16 02:04:10;;;;;;;2.95;1.40;;;19.60;68.10;;;;;;10530528;28;20488;-29
2023/04/16 02:09:13;;;;;;;;;;;19.70;61.10;;;;;;10521377;28;20052;-33
2023/04/16 02:14:15;;;;;;;2.70;1.20;;;18.70;71.40;;;;;;10515858;28;19973;-32
2023/04/16 02:19:17;;;;;;;3.15;1.42;;;19.30;67.80;;;;;;10523899;28;20451;-31
2023/04/16 02:24:21;;;;;;;6.22;1.23;;;17.90;79.20;;;;;;10523558;28;20139;-32
2023/04/16 02:29:23;;;;;;;3.08;1.23;;;17.20;78.30;;;;;;10524779;28;20063;-27
2023/04/16 02:34:25;;;;;;;2.67;0.90;;;18.40;75.70;;;;;;10510594;28;20087;-30
2023/04/16 02:39:28;;;;;;;3.25;1.27;;;18.60;72.90;;;;;;10517696;28;20136;-30
2023/04/16 02:44:30;;;;;;;4.63;1.17;;;18.60;66.50;;;;;;10525979;28;20048;-31
2023/04/16 02:49:32;;;;;;;5.85;1.48;;;18.80;65.80;;;;;;10518865;28;20051;-32
2023/04/16 02:54:35;;;;;;;9.68;2.50;;;17.80;76.80;;;;;;10520348;28;20041;-30
2023/04/16 02:59:37;;;;;;;7.22;2.38;;;17.00;71.40;;;;;;10520217;28;20083;-29
2023/04/16 03:04:38;;;;;;;5.75;1.52;;;18.50;71.30;;;;;;10520734;28;20076;-28
2023/04/16 03:09:42;;;;;;;3.90;1.20;;;18.40;62.50;;;;;;10519713;28;20135;-29
2023/04/16 03:14:43;;;;;;;4.80;1.52;;;18.00;75.30;;;;;;10533358;28;20079;-29
2023/04/16 03:19:45;;;;;;;3.40;1.40;;;19.30;68.20;;;;;;10533484;28;20516;-31
2023/04/16 03:24:49;;;;;;;10.27;2.10;;;18.50;70.20;;;;;;10519122;28;20037;-29
2023/04/16 03:29:51;;;;;;;6.63;2.22;;;19.00;63.80;;;;;;10532329;28;20139;-32
2023/04/16 03:34:53;;;;;;;3.13;1.25;;;17.20;75.50;;;;;;10526164;28;20097;-32
2023/04/16 03:39:56;;;;;;;6.47;1.88;;;17.60;77.50;;;;;;10532477;28;20137;-30
2023/04/16 03:44:58;;;;;;;7.45;1.45;;;16.00;74.90;;;;;;10524173;28;20075;-27
2023/04/16 03:50:00;;;;;;;2.80;1.02;;;17.10;66.60;;;;;;10516370;28;20044;-28
2023/04/16 03:55:03;;;;;;;4.00;1.50;;;18.20;74.70;;;;;;10514331;28;20549;-28
2023/04/16 04:00:06;;;;;;;3.40;1.35;;;16.90;79.50;;;;;;10511902;28;20402;-30
2023/04/16 04:05:09;;;;;;;4.38;1.90;;;18.00;67.30;;;;;;10524140;28;20067;-29
2023/04/16 04:10:12;;;;;;;4.97;1.98;;;18.50;73.60;;;;;;10527566;28;20048;-28
2023/04/16 04:15:14;;;;;;;12.35;1.55;;;17.70;77.50;;;;;;10513105;28;20036;-28
2023/04/16 04:20:16;;;;;;;7.22;1.50;;;16.70;79.00;;;;;;10531482;28;20064;-31
2023/04/16 04:25:19;;;;;;;3.40;1.50;;;16.90;77.70;;;;;;10515152;28;20051;-32
2023/04/16 04:30:21;;;;;;;2.47;1.40;;;17.80;75.50;;;;;;10530446;28;20551;-29
2023/04/16 04:35:23;;;;;;;5.78;1.45;;;17.40;75.70;;;;;;10517035;28;20488;-32
2023/04/16 04:40:26;;;;;;;4.55;1.10;;;18.80;66.90;;;;;;10506041;28;20143;-28
2023/04/16 04:45:28;;;;;;;4.32;1.38;;;16.60;82.90;;;;;;10521109;28;20083;-33
2023/04/16 04:50:30;;;;;;;4.88;1.27;;;18.60;71.20;;;;;;10505752;28;20432;-29
2023/04/16 04:55:33;;;;;;;5.97;1.40;;;15.40;88.80;;;;;;10517297;28;20045;-30
2023/04/16 05:00:36;;;;;;;3.35;1.10;;;18.30;71.50;;;;;;10529716;28;20064;-32
2023/04/16 05:05:38;;;;;;;3.20;1.00;;;19.10;68.80;;;;;;10520725;28;20403;-34
2023/04/16 05:10:41;;;;;;;12.48;1.98;;;18.50;71.60;;;;;;10533398;28;20119;-30
2023/04/16 05:15:43;;;;;;;3.20;1.35;;;16.20;75.30;;;;;;10527786;28;20536;-29
2023/04/16 05:20:45;;;;;;;;;;;18.70;71.50;;;;;;10530750;28;20172;-30
2023/04/16 05:25:48;;;;;;;5.95;1.20;;;18.20;72.10;;;;;;10536075;28;19926;-31
2023/04/16 05:30:51;;;;;;;7.47;1.63;;;17.10;75.10;;;;;;10517649;28;20048;-31
2023/04/16 05:35:52;;;;;;;2.78;0.98;;;15.50;80.20;;;;;;10528613;28;20058;-28
2023/04/16 05:40:58;;;;;;;4.82;1.70;;;17.70;72.70;;;;;;10531198;28;20074;-29
2023/04/16 05:46:00;;;;;;;7.72;1.23;;;18.30;72.00;;;;;;10502145;28;20098;-36
2023/04/16 05:51:02;;;;;;;4.05;1.10;;;18.50;70.80;;;;;;10530264;28;20131;-30
2023/04/16 05:56:05;;;;;;;5.28;0.85;;;17.30;76.00;;;;;;10530448;28;20052;-31
2023/04/16 06:01:07;;;;;;;6.53;1.30;;;18.30;70.80;;;;;;10507253;28;20485;-25
2023/04/16 06:06:09;;;;;;;6.63;1.35;;;17.60;78.40;;;;;;10521048;28;20045;-29
2023/04/16 06:11:13;;;;;;;2.10;0.88;;;18.70;70.90;;;;;;10521171;28;20051;-27
2023/04/16 06:16:15;;;;;;;2.63;1.15;;;17.80;69.70;;;;;;10522156;28;20068;-28
2023/04/16 06:21:17;;;;;;;2.72;1.17;;;18.50;71.30;;;;;;10519552;28;20051;-30
2023/04/16 06:26:20;;;;;;;2.75;0.80;;;18.60;71.20;;;;;;10519665;28;20396;-29
2023/04/16 06:31:22;;;;;;;6.07;1.40;;;17.80;75.40;;;;;;10523014;28;20056;-29
2023/04/16 06:36:26;;;;;;;6.35;1.85;;;18.30;74.40;;;;;;10530944;28;20488;-28
2023/04/16 06:41:30;;;;;;;4.43;1.00;;;17.90;75.00;;;;;;10520429;28;20056;-30
2023/04/16 06:46:31;;;;;;;1.75;0.77;;;17.60;68.50;;;;;;10519689;28;20117;-28
2023/04/16 06:51:34;;;;;;;2.92;1.15;;;18.60;71.90;;;;;;10518714;28;20160;-30
2023/04/16 06:56:37;;;;;;;7.45;1.63;;;18.30;73.30;;;;;;10519215;28;20481;-29
2023/04/16 07:01:40;;;;;;;2.92;1.73;;;18.50;68.40;;;;;;10508212;28;20044;-30
2023/04/16 07:06:42;;;;;;;8.93;2.40;;;18.70;71.00;;;;;;10511335;28;20504;-29
2023/04/16 07:11:45;;;;;;;8.07;2.63;;;19.40;66.90;;;;;;10510209;28;20052;-27
2023/04/16 07:16:47;;;;;;;7.18;2.28;;;19.30;67.40;;;;;;10516389;28;20401;-36
2023/04/16 07:21:49;;;;;;;6.35;2.00;;;18.70;69.60;;;;;;10524727;28;20159;-36
2023/04/16 07:26:52;;;;;;;7.85;2.40;;;19.20;66.30;;;;;;10512585;28;20041;-35
2023/04/16 07:31:54;;;;;;;5.22;1.88;;;19.30;66.60;;;;;;10506921;28;20048;-35
2023/04/16 07:36:56;;;;;;;4.35;1.40;;;19.30;65.30;;;;;;10517026;28;20040;-31
2023/04/16 07:41:59;;;;;;;1.88;1.13;;;18.80;61.70;;;;;;10523429;28;20052;-29
2023/04/16 07:47:01;;;;;;;7.05;1.33;;;18.90;67.60;;;;;;10519896;28;20101;-31
2023/04/16 07:52:03;;;;;;;6.05;1.38;;;19.40;65.40;;;;;;10510043;28;20052;-27
2023/04/16 07:57:06;;;;;;;3.58;0.98;;;19.40;64.70;;;;;;10516799;28;20082;-31
2023/04/16 08:02:10;;;;;;;3.40;1.00;;;19.80;63.00;;;;;;10521547;28;20158;-30
2023/04/16 08:07:12;;;;;;;5.28;1.20;;;18.90;66.30;;;;;;10512881;28;20145;-31
2023/04/16 08:12:16;;;;;;;4.45;1.05;;;19.70;62.80;;;;;;10513215;28;20142;-30
2023/04/16 08:17:18;;;;;;;2.92;0.80;;;19.60;62.50;;;;;;10514158;28;20408;-29
2023/04/16 08:22:21;;;;;;;7.57;1.00;;;18.90;66.70;;;;;;10517089;28;20139;-28
2023/04/16 08:27:24;;;;;;;4.35;0.90;;;18.60;67.10;;;;;;10509424;28;20047;-29
2023/04/16 08:32:26;;;;;;;6.10;0.85;;;19.50;63.00;;;;;;10512879;28;20049;-29
2023/04/16 08:37:28;;;;;;;5.00;1.15;;;19.10;65.10;;;;;;10502608;28;20127;-35
2023/04/16 08:42:35;;;;;;;2.55;0.70;;;19.20;64.60;;;;;;10515829;28;20080;-30
2023/04/16 08:47:38;;;;;;;3.60;0.95;;;19.30;63.50;;;;;;10529925;28;20105;-32
2023/04/16 08:52:49;;;;;;;4.88;0.88;;;18.80;67.00;;;;;;10522231;28;20083;-29
2023/04/16 08:57:57;;;;;;;2.55;0.50;;;18.30;67.80;;;;;;10519429;28;20488;-35
2023/04/16 09:02:59;;;;;;;2.15;0.70;;;19.20;63.90;;;;;;10518854;28;20082;-32
2023/04/16 09:08:01;;;;;;;;;;;18.80;61.30;;;;;;10514215;28;20088;-30
2023/04/16 09:13:04;;;;;;;3.35;1.17;;;19.20;63.40;;;;;;10512612;28;19920;-31
2023/04/16 09:18:07;;;;;;;6.22;1.27;;;18.80;64.10;;;;;;10517901;28;20177;-28
2023/04/16 09:23:10;;;;;;;2.97;1.10;;;19.40;62.10;;;;;;10507938;28;20424;-30
2023/04/16 09:28:33;;;;;;;7.80;1.58;;;19.30;62.70;;;;;;10514567;28;20047;-29
2023/04/16 09:33:35;;;;;;;3.40;0.98;;;16.40;68.00;;;;;;10508336;28;20163;-29
2023/04/16 09:38:47;;;;;;;3.33;1.13;;;17.20;75.60;;;;;;10522070;28;20098;-30
2023/04/16 09:43:55;;;;;;;7.60;1.05;;;18.10;68.00;;;;;;10516295;28;20522;-28
2023/04/16 09:48:57;;;;;;;3.42;1.20;;;17.50;74.60;;;;;;10515986;28;20044;-28
2023/04/16 09:53:59;;;;;;;5.85;1.17;;;16.60;78.90;;;;;;10530235;28;20135;-30
2023/04/16 09:59:02;;;;;;;5.25;1.52;;;17.70;70.20;;;;;;10517399;28;20127;-30
2023/04/16 10:04:06;;;;;;;2.20;0.90;;;16.50;80.10;;;;;;10523263;28;20135;-29
2023/04/16 10:09:09;;;;;;;3.72;1.00;;;17.70;70.70;;;;;;10515852;28;20053;-32
2023/04/16 10:14:12;;;;;;;;;;;18.10;73.50;;;;;;10528699;28;20127;-29
2023/04/16 10:19:14;;;;;;;6.22;1.27;;;18.10;73.30;;;;;;10521981;28;19924;-29
2023/04/16 10:24:17;;;;;;;;;;;18.00;72.60;;;;;;10523882;28;20098;-29
2023/04/16 10:29:21;;;;;;;1.92;0.90;;;18.10;74.30;;;;;;10518514;28;20519;-32
2023/04/16 10:34:24;;;;;;;5.47;0.95;;;18.10;75.80;;;;;;10519849;28;20055;-28
2023/04/16 10:39:28;;;;;;;4.28;1.10;;;18.10;70.80;;;;;;10525953;28;20048;-30
2023/04/16 10:44:32;;;;;;;3.00;1.27;;;18.60;68.60;;;;;;10520298;28;20054;-31
2023/04/16 10:49:35;;;;;;;3.25;1.33;;;16.70;79.10;;;;;;10501580;28;20144;-29
2023/04/16 10:54:38;;;;;;;2.65;1.05;;;18.40;72.50;;;;;;10509538;28;20134;-30
2023/04/16 10:59:43;;;;;;;4.13;0.80;;;18.70;68.90;;;;;;10507698;28;20090;-32
2023/04/16 11:04:46;;;;;;;1.83;0.90;;;18.20;72.20;;;;;;10508675;28;20048;-30
2023/04/16 11:09:59;;;;;;;4.88;1.00;;;19.00;67.20;;;;;;10520232;28;20051;-28
2023/04/16 11:15:03;;;;;;;1.38;0.80;;;18.10;70.40;;;;;;10512594;28;20045;-30
2023/04/16 11:20:06;;;;;;;15.93;2.13;;;18.90;69.70;;;;;;10504899;28;20088;-29
2023/04/16 11:25:08;;;;;;;5.65;1.73;;;16.70;73.30;;;;;;10519194;28;20041;-30
2023/04/16 11:30:12;;;;;;;;;;;16.80;82.80;;;;;;10522930;28;20433;-31
2023/04/16 11:35:17;;;;;;;3.63;1.40;;;17.50;73.90;;;;;;10522400;28;19936;-31
2023/04/16 11:40:19;;;;;;;2.35;1.40;;;18.90;70.50;;;;;;10514643;28;20088;-29
2023/04/16 11:45:22;;;;;;;3.35;1.60;;;18.10;73.70;;;;;;10514716;28;20072;-31
2023/04/16 11:50:26;;;;;;;6.47;1.85;;;19.00;69.60;;;;;;10521002;28;20075;-31
2023/04/16 11:55:28;;;;;;;4.07;2.13;;;17.60;78.20;;;;;;10512132;28;20045;-31
2023/04/16 12:00:36;;;;;;;6.57;2.13;;;18.00;68.00;;;;;;10519829;28;20051;-29
2023/04/16 12:05:40;;;;;;;7.38;1.98;;;19.10;67.90;;;;;;10510890;28;20090;-29
2023/04/16 12:10:53;;;;;;;2.67;1.52;;;17.70;76.50;;;;;;10522551;28;20075;-33
2023/04/16 12:15:57;;;;;;;4.53;1.75;;;17.90;71.50;;;;;;10528636;28;20518;-30
2023/04/16 12:21:00;;;;;;;5.43;2.08;;;18.70;70.30;;;;;;10513912;28;20102;-34
2023/04/16 12:26:09;;;;;;;6.35;2.15;;;17.80;64.60;;;;;;10507251;28;20054;-29
2023/04/16 12:31:13;;;;;;;5.60;2.78;;;18.00;75.60;;;;;;10511330;28;20078;-31
2023/04/16 12:36:18;;;;;;;7.13;2.85;;;19.10;69.10;;;;;;10502967;28;20128;-32
2023/04/16 12:41:20;;;;;;;9.10;2.65;;;18.40;69.60;;;;;;10514242;28;20088;-28
2023/04/16 12:46:23;;;;;;;5.13;2.80;;;18.60;70.20;;;;;;10509590;28;20721;-27
2023/04/16 12:51:26;;;;;;;6.00;3.03;;;16.90;79.60;;;;;;10508226;28;20144;-27
2023/04/16 12:56:28;;;;;;;4.57;2.40;;;17.80;75.10;;;;;;10513217;28;20141;-30
2023/04/16 13:01:34;;;;;;;4.60;2.58;;;18.70;72.60;;;;;;10495675;28;20477;-31
2023/04/16 13:06:36;;;;;;;14.75;3.95;;;17.40;81.70;;;;;;10517866;28;20052;-28
2023/04/16 13:11:38;;;;;;;7.10;3.40;;;15.20;88.90;;;;;;10520657;28;20037;-30
2023/04/16 13:16:42;;;;;;;6.70;3.97;;;15.10;88.60;;;;;;10511997;28;20040;-30
2023/04/16 13:21:44;;;;;;;8.10;3.55;;;16.70;88.20;;;;;;10515074;28;20044;-29
2023/04/16 13:26:46;;;;;;;5.90;3.42;;;17.60;81.40;;;;;;10519991;28;20110;-30
2023/04/16 13:31:49;;;;;;;7.32;3.33;;;17.70;78.20;;;;;;10506778;28;20056;-29
2023/04/16 13:36:51;;;;;;;7.68;3.40;;;17.80;79.50;;;;;;10518272;28;20142;-29
2023/04/16 13:41:53;;;;;;;7.90;3.80;;;18.30;75.60;;;;;;10519568;28;20522;-30
2023/04/16 13:46:56;;;;;;;8.23;4.18;;;18.80;71.40;;;;;;10522731;28;20091;-30
2023/04/16 13:51:59;;;;;;;9.25;4.53;;;19.30;69.40;;;;;;10509667;28;20142;-32
2023/04/16 13:57:01;;;;;;;8.77;3.88;;;19.40;68.10;;;;;;10528908;28;21383;-30
2023/04/16 14:02:05;;;;;;;8.05;3.85;;;18.80;71.10;;;;;;10507755;28;20148;-29
2023/04/16 14:07:07;;;;;;;14.07;4.13;;;18.90;71.40;;;;;;10523156;28;20076;-31
2023/04/16 14:12:09;;;;;;;5.97;2.83;;;19.00;65.90;;;;;;10520342;28;20480;-31
2023/04/16 14:17:12;;;;;;;7.03;4.00;;;19.00;70.60;;;;;;10517684;28;20143;-30
2023/04/16 14:22:16;;;;;;;6.72;3.55;;;19.30;67.80;;;;;;10512469;28;20052;-30
2023/04/16 14:27:18;;;;;;;7.13;3.03;;;19.90;65.70;;;;;;10514911;28;20110;-29
2023/04/16 14:32:22;;;;;;;5.70;3.08;;;19.30;68.00;;;;;;10522925;28;20089;-28
2023/04/16 14:37:25;;;;;;;6.70;2.50;;;18.50;73.80;;;;;;10511238;28;20392;-31
2023/04/16 14:42:27;;;;;;;5.45;2.00;;;20.20;68.30;;;;;;10512349;28;20087;-30
2023/04/16 14:47:30;;;;;;;;;;;20.00;69.20;;;;;;10515259;28;20718;-33
2023/04/16 14:52:32;;;;;;;4.05;2.40;;;19.50;68.50;;;;;;10504013;28;19952;-29
2023/04/16 14:57:35;;;;;;;6.35;2.47;;;19.80;68.50;;;;;;10516759;28;20473;-31
2023/04/16 15:02:38;;;;;;;6.60;3.25;;;20.20;64.60;;;;;;10517319;28;20056;-30
2023/04/16 15:07:40;;;;;;;6.90;4.03;;;20.20;65.80;;;;;;10513746;28;20127;-32
2023/04/16 15:12:42;;;;;;;6.35;3.33;;;19.70;68.30;;;;;;10508197;28;20068;-30
2023/04/16 15:17:45;;;;;;;8.55;3.30;;;20.30;65.80;;;;;;10504536;28;20040;-30
2023/04/16 15:22:47;;;;;;;6.85;3.63;;;19.60;68.20;;;;;;10510958;28;20101;-30
2023/04/16 15:27:49;;;;;;;10.25;3.50;;;19.20;71.40;;;;;;10520530;28;20130;-28
2023/04/16 15:32:53;;;;;;;6.90;2.30;;;20.50;64.80;;;;;;10519133;28;20052;-30
2023/04/16 15:37:57;;;;;;;3.30;2.00;;;20.70;63.70;;;;;;10524228;28;20044;-29
2023/04/16 15:42:59;;;;;;;4.10;2.72;;;19.90;67.50;;;;;;10516495;28;20064;-32
2023/04/16 15:48:04;;;;;;;6.60;3.58;;;19.20;67.20;;;;;;10504841;28;20472;-32
2023/04/16 15:53:06;;;;;;;10.73;3.92;;;19.70;67.80;;;;;;10526331;28;20134;-32
2023/04/16 15:58:08;;;;;;;4.13;2.10;;;19.30;64.10;;;;;;10509739;28;20076;-30
2023/04/16 16:03:11;;;;;;;3.38;1.88;;;20.50;65.00;;;;;;10505443;28;20159;-30
2023/04/16 16:08:13;;;;;;;5.18;2.17;;;19.80;66.70;;;;;;10518412;28;20047;-30
2023/04/16 16:13:17;;;;;;;6.45;2.75;;;19.90;67.50;;;;;;10507967;28;20142;-30
2023/04/16 16:18:21;;;;;;;5.47;2.60;;;19.80;67.60;;;;;;10490582;28;20045;-30
2023/04/16 16:23:22;;;;;;;8.80;3.50;;;20.20;65.60;;;;;;10506787;28;20071;-32
2023/04/16 16:28:25;;;;;;;7.72;3.70;;;19.70;66.70;;;;;;10518238;28;20076;-32
2023/04/16 16:33:28;;;;;;;14.02;4.20;;;20.40;64.60;;;;;;10514541;28;20044;-29
2023/04/16 16:38:30;;;;;;;7.30;4.07;;;20.70;63.60;;;;;;10501187;28;20048;-28
2023/04/16 16:43:32;;;;;;;11.73;4.55;;;19.70;67.20;;;;;;10515898;28;20141;-29
2023/04/16 16:48:35;;;;;;;14.57;6.25;;;19.90;67.40;;;;;;10512432;28;20072;-29
2023/04/16 16:53:37;;;;;;;15.38;6.60;;;20.50;65.00;;;;;;10518036;28;20052;-30
2023/04/16 16:58:39;;;;;;;14.93;5.32;;;19.90;66.70;;;;;;10506939;28;20110;-29
2023/04/16 17:03:42;;;;;;;13.00;5.32;;;20.20;66.50;;;;;;10502325;28;20047;-29
2023/04/16 17:08:44;;;;;;;23.83;11.85;;;20.10;67.40;;;;;;10501540;28;20044;-30
2023/04/16 17:13:46;;;;;;;8.18;5.43;;;19.80;68.90;;;;;;10501101;28;20044;-30
2023/04/16 17:18:50;;;;;;;11.30;5.03;;;20.20;67.70;;;;;;10522597;28;21446;-33
2023/04/16 17:23:51;;;;;;;11.63;4.95;;;19.70;71.20;;;;;;10532254;28;20147;-33
2023/04/16 17:28:55;;;;;;;10.40;5.38;;;19.70;71.30;;;;;;10518361;28;20048;-33
2023/04/16 17:33:58;;;;;;;11.73;5.15;;;20.70;68.20;;;;;;10523420;28;20032;-31
2023/04/16 17:39:00;;;;;;;12.60;6.53;;;20.80;67.10;;;;;;10497115;28;20390;-28
2023/04/16 17:44:02;;;;;;;13.10;5.22;;;20.70;67.50;;;;;;10523360;28;20075;-32
2023/04/16 17:49:05;;;;;;;14.00;5.32;;;20.80;67.30;;;;;;10517545;28;20656;-35
2023/04/16 17:54:07;;;;;;;12.32;5.20;;;20.80;67.10;;;;;;10522168;28;20120;-36
2023/04/16 17:59:09;;;;;;;9.38;4.68;;;20.10;69.60;;;;;;10528527;28;20045;-30
2023/04/16 18:04:12;;;;;;;9.40;4.80;;;20.80;66.00;;;;;;10516011;28;20048;-35
2023/04/16 18:09:14;;;;;;;7.20;3.60;;;20.60;64.10;;;;;;10522239;28;20602;-33
2023/04/16 18:14:18;;;;;;;8.43;4.28;;;20.90;64.60;;;;;;10524862;28;20074;-32
2023/04/16 18:19:22;;;;;;;6.93;3.92;;;20.90;64.10;;;;;;10526242;28;20510;-32
2023/04/16 18:24:24;;;;;;;6.38;3.45;;;20.70;64.90;;;;;;10514337;28;20532;-35
2023/04/16 18:29:26;;;;;;;5.07;3.25;;;20.80;64.00;;;;;;10519755;28;20058;-32
2023/04/16 18:34:30;;;;;;;8.60;3.13;;;20.90;63.40;;;;;;10521135;28;20102;-31
2023/04/16 18:39:32;;;;;;;7.15;3.30;;;20.80;63.50;;;;;;10513321;28;20052;-30
2023/04/16 18:44:34;;;;;;;8.38;3.53;;;20.90;63.20;;;;;;10504670;28;20095;-29
2023/04/16 18:49:38;;;;;;;5.38;3.20;;;20.90;63.20;;;;;;10513354;28;20512;-30
2023/04/16 18:54:40;;;;;;;9.43;3.28;;;20.90;63.10;;;;;;10517719;28;20044;-32
2023/04/16 18:59:42;;;;;;;4.55;2.92;;;20.80;63.00;;;;;;10515833;28;20040;-29
2023/04/16 19:04:45;;;;;;;5.40;3.28;;;20.80;63.10;;;;;;10511079;28;20082;-32
2023/04/16 19:09:47;;;;;;;7.57;3.30;;;20.70;63.30;;;;;;10513506;28;20068;-31
2023/04/16 19:14:49;;;;;;;9.45;4.03;;;20.30;64.90;;;;;;10520235;28;20147;-30
2023/04/16 19:19:52;;;;;;;7.35;4.40;;;20.50;64.10;;;;;;10507234;28;20077;-28
2023/04/16 19:24:54;;;;;;;6.82;4.38;;;20.40;65.30;;;;;;10505939;28;20143;-33
2023/04/16 19:29:56;;;;;;;9.38;5.32;;;20.60;61.80;;;;;;10515157;28;20044;-29
2023/04/16 19:34:59;;;;;;;7.13;3.67;;;19.70;65.00;;;;;;10511876;28;20119;-28
2023/04/16 19:40:04;;;;;;;7.60;3.72;;;20.40;64.30;;;;;;10524083;28;20141;-30
2023/04/16 19:45:07;;;;;;;9.27;3.70;;;20.60;63.30;;;;;;10519475;28;20060;-30
2023/04/16 19:50:11;;;;;;;10.25;5.03;;;20.50;63.70;;;;;;10509512;28;20108;-28
2023/04/16 19:55:13;;;;;;;15.73;5.65;;;20.30;64.10;;;;;;10521891;28;20127;-32
2023/04/16 20:00:15;;;;;;;7.57;4.40;;;19.60;64.00;;;;;;10516976;28;20125;-30
2023/04/16 20:05:19;;;;;;;8.18;3.45;;;20.60;63.30;;;;;;10511231;28;20056;-30
2023/04/16 20:10:21;;;;;;;9.63;4.03;;;20.30;64.60;;;;;;10513326;28;20188;-31
2023/04/16 20:15:23;;;;;;;9.00;3.72;;;20.70;62.90;;;;;;10507608;28;20048;-30
2023/04/16 20:20:26;;;;;;;6.65;3.97;;;20.80;62.30;;;;;;10519096;28;20044;-31
2023/04/16 20:25:28;;;;;;;8.95;3.88;;;20.50;63.40;;;;;;10497241;28;20086;-31
2023/04/16 20:30:37;;;;;;;8.25;3.95;;;20.70;62.90;;;;;;10507940;28;20060;-31
2023/04/16 20:35:40;;;;;;;10.15;4.93;;;20.80;62.30;;;;;;10513446;28;20044;-31
2023/04/16 20:40:43;;;;;;;9.00;3.80;;;20.30;63.40;;;;;;10499241;28;20574;-28
2023/04/16 20:45:45;;;;;;;7.93;4.05;;;20.70;62.50;;;;;;10505760;28;21859;-31
2023/04/16 20:50:48;;;;;;;7.68;4.10;;;20.70;62.60;;;;;;10522326;28;20503;-36
2023/04/16 20:55:51;;;;;;;7.93;3.95;;;20.70;62.70;;;;;;10526060;28;20069;-32
2023/04/16 21:00:53;;;;;;;;;;;20.40;63.70;;;;;;10509520;28;20045;-34
2023/04/16 21:05:56;;;;;;;9.25;5.03;;;20.70;62.70;;;;;;10511391;28;19964;-29
2023/04/16 21:10:57;;;;;;;11.35;5.13;;;20.50;63.10;;;;;;10515843;28;20135;-31
2023/04/16 21:15:59;;;;;;;12.52;5.15;;;20.50;63.20;;;;;;10520949;28;20126;-29
2023/04/16 21:21:03;;;;;;;9.30;5.30;;;20.60;62.80;;;;;;10517974;28;20408;-32
2023/04/16 21:26:05;;;;;;;10.50;5.75;;;20.60;62.20;;;;;;10518891;28;20530;-29
2023/04/16 21:31:07;;;;;;;;;;;20.20;63.10;;;;;;10514251;28;20044;-28
2023/04/16 21:36:10;;;;;;;11.03;5.33;;;20.50;63.00;;;;;;10515044;28;20011;-30
2023/04/16 21:41:12;;;;;;;10.90;5.70;;;20.60;62.60;;;;;;10521375;28;20386;-29
2023/04/16 21:46:14;;;;;;;9.23;6.00;;;20.60;63.10;;;;;;10489930;28;20147;-29
2023/04/16 21:51:18;;;;;;;8.93;4.72;;;20.50;62.50;;;;;;10515756;28;20048;-30
2023/04/16 21:56:20;;;;;;;10.50;5.18;;;20.60;62.50;;;;;;10524294;28;20050;-30
2023/04/16 22:01:22;;;;;;;14.55;7.38;;;20.50;62.80;;;;;;10533208;28;20046;-31
2023/04/16 22:06:25;;;;;;;11.80;6.45;;;20.50;62.60;;;;;;10530974;28;20148;-29
2023/04/16 22:11:28;;;;;;;12.15;6.82;;;20.50;62.50;;;;;;10532481;28;20048;-29
2023/04/16 22:16:29;;;;;;;;;;;20.50;62.50;;;;;;10509011;28;20413;-28
2023/04/16 22:21:33;;;;;;;11.77;7.17;;;20.50;62.50;;;;;;10518134;28;19959;-30
2023/04/16 22:26:35;;;;;;;12.48;6.25;;;20.30;62.70;;;;;;10526948;28;20048;-30
2023/04/16 22:31:36;;;;;;;13.80;6.72;;;20.20;63.10;;;;;;10520224;28;20054;-30
2023/04/16 22:36:40;;;;;;;11.40;6.53;;;20.30;63.10;;;;;;10509844;28;20784;-29
2023/04/16 22:41:42;;;;;;;12.10;6.70;;;19.70;65.10;;;;;;10514476;28;20045;-32
2023/04/16 22:46:44;;;;;;;10.77;6.45;;;20.20;63.50;;;;;;10525058;28;20112;-30
2023/04/16 22:51:47;;;;;;;;;;;19.80;64.70;;;;;;10519174;28;20214;-33
2023/04/16 22:56:49;;;;;;;11.32;6.55;;;20.20;63.20;;;;;;10526930;28;19950;-27
2023/04/16 23:01:51;;;;;;;9.70;6.13;;;20.20;63.10;;;;;;10523738;28;20117;-31
2023/04/16 23:06:54;;;;;;;;;;;20.30;63.00;;;;;;10522666;28;20048;-33
2023/04/16 23:11:56;;;;;;;12.63;7.18;;;20.20;62.90;;;;;;10518396;28;19931;-29
2023/04/16 23:16:58;;;;;;;14.57;7.43;;;20.30;62.80;;;;;;10510423;28;20055;-26
2023/04/16 23:22:02;;;;;;;12.35;7.05;;;20.00;63.70;;;;;;10522932;28;20046;-29
2023/04/16 23:27:04;;;;;;;10.35;6.03;;;20.10;63.30;;;;;;10519765;28;20141;-28
2023/04/16 23:32:06;;;;;;;16.67;6.75;;;20.00;63.10;;;;;;10517009;28;20037;-28
2023/04/16 23:37:09;;;;;;;9.85;6.10;;;19.10;65.40;;;;;;10514361;28;20143;-29
2023/04/16 23:42:11;;;;;;;11.45;6.60;;;19.80;64.20;;;;;;10514492;28;20101;-29
2023/04/16 23:47:13;;;;;;;10.57;5.40;;;20.00;63.20;;;;;;10513017;28;20063;-29
2023/04/16 23:52:16;;;;;;;11.57;6.93;;;20.00;63.40;;;;;;10519504;28;20143;-28
2023/04/16 23:57:18;;;;;;;9.13;6.03;;;20.10;63.10;;;;;;10505049;28;20127;-36
